Terminal Aerodrome Forecast
Issued by NWS

Home | Current Version | Previous Version | Text Only | Print | Product List | Glossary On
Versions: 1 2 3 4 5 6 7 8 9 10 11 12 13 14 15 16 17 18 19 20 21 22
000
FTUS41 KBUF 291100
TAFJHW
TAF
KJHW 291131Z 2912/3012 16011KT P6SM SCT035 OVC070
     FM291500 16020KT P6SM SCT035 OVC060
     FM291800 16020KT 2SM -SN OVC025
     FM292100 18020KT 2SM -SN OVC003
     FM300200 25015G21KT 2SM -SN OVC003
     FM300700 29016G28KT 2SM -SN OVC003
     FM301100 29016G25KT 2SM -SN OVC007
      AMD LTD TO CLD VIS AND WIND=

USA.gov is the U.S. government's official web portal to all federal, state and local government web resources and services.